Time;durP1;ratioP1;P1;durP2;ratioP2;P2;SDS_P1;SDS_P2;PMS_P1;PMS_P2;Temp;Humidity;BMP_temperature;BMP_pressure;BME280_temperature;BME280_humidity;BME280_pressure;Samples;Min_cycle;Max_cycle;Signal;HPM_P1;HPM_P2
2022/02/03 01:55:05;;;;;;;97.35;58.00;;;8.90;99.90;;;;;;4923129;29;20231;-85
2022/02/03 01:58:20;;;;;;;98.97;61.97;;;8.90;99.90;;;;;;4925111;29;20153;-84
2022/02/03 02:01:18;;;;;;;95.18;54.40;;;8.90;99.90;;;;;;4923229;29;20188;-85
2022/02/03 02:04:54;;;;;;;93.70;52.50;;;8.90;99.90;;;;;;4924169;29;20208;-84
2022/02/03 02:11:12;;;;;;;95.22;53.58;;;8.90;99.90;;;;;;4865672;29;20291;-85
2022/02/03 02:43:23;;;;;;;89.68;46.28;;;8.70;99.90;;;;;;4919661;29;20173;-85
2022/02/03 02:46:35;;;;;;;;;;;;;;;;;;;;;
2022/02/03 02:49:50;;;;;;;92.05;50.65;;;8.80;99.90;;;;;;4922654;29;20189;-85
2022/02/03 02:52:58;;;;;;;89.00;45.20;;;8.80;99.90;;;;;;4922586;29;20180;-86
2022/02/03 03:02:45;;;;;;;92.20;52.65;;;8.80;99.90;;;;;;4923348;29;20185;-86
2022/02/03 03:33:09;;;;;;;89.95;49.70;;;8.80;99.90;;;;;;4903589;29;20523;-85
2022/02/03 03:36:25;;;;;;;92.55;51.72;;;8.80;99.90;;;;;;4902209;29;20221;-85
2022/02/03 03:38:57;;;;;;;87.93;44.65;;;8.80;99.90;;;;;;4902956;29;20178;-85
2022/02/03 03:41:51;;;;;;;92.47;54.15;;;8.80;99.90;;;;;;4901438;29;20220;-85
2022/02/03 03:47:28;;;;;;;92.60;52.55;;;8.90;99.90;;;;;;4927912;23;20229;-85
2022/02/03 03:50:41;;;;;;;88.57;44.58;;;9.00;99.90;;;;;;4902917;29;20272;-85
2022/02/03 03:53:46;;;;;;;89.45;47.22;;;8.90;99.90;;;;;;4888879;29;20174;-85
2022/02/03 03:56:40;;;;;;;90.18;45.83;;;8.80;99.90;;;;;;4901176;29;20197;-85
2022/02/03 04:33:53;;;;;;;90.25;37.33;;;8.60;99.90;;;;;;4904950;29;20617;-85
2022/02/03 04:43:18;;;;;;;86.93;49.15;;;8.60;99.90;;;;;;4905565;29;20637;-85
2022/02/03 04:59:58;;;;;;;87.00;50.70;;;8.60;99.90;;;;;;4905608;29;20210;-85
2022/02/03 05:02:33;;;;;;;90.97;54.90;;;8.60;99.90;;;;;;4880847;29;20174;-85
2022/02/03 05:15:35;;;;;;;87.38;49.60;;;8.50;99.90;;;;;;4905629;29;20205;-85
2022/02/03 05:32:22;;;;;;;86.90;46.83;;;8.40;99.90;;;;;;4904581;29;20252;-85
2022/02/03 05:42:20;;;;;;;87.43;50.50;;;8.40;99.90;;;;;;4904822;29;20225;-85
2022/02/03 06:15:27;;;;;;;93.97;52.97;;;8.30;99.90;;;;;;4904051;29;20278;-85
2022/02/03 06:22:10;;;;;;;90.80;48.30;;;8.30;99.90;;;;;;4904451;29;20156;-85
2022/02/03 06:31:14;;;;;;;95.35;57.88;;;8.30;99.90;;;;;;4895840;29;20218;-85
2022/02/03 06:33:53;;;;;;;93.50;51.78;;;8.30;99.90;;;;;;4903281;29;20174;-85
2022/02/03 06:37:04;;;;;;;93.53;54.65;;;8.30;99.90;;;;;;4898630;29;20205;-85
2022/02/03 06:40:32;;;;;;;;;;;;;;;;;;;;;
2022/02/03 06:43:38;;;;;;;91.30;49.28;;;8.30;99.90;;;;;;4895605;29;20181;-85
2022/02/03 06:55:56;;;;;;;94.28;58.17;;;8.30;99.90;;;;;;4921510;29;20216;-85
2022/02/03 07:02:43;;;;;;;91.07;53.80;;;8.30;99.90;;;;;;4924932;29;20224;-85
2022/02/03 07:05:51;;;;;;;92.28;57.33;;;8.30;99.90;;;;;;4921180;29;20565;-86
2022/02/03 07:08:21;;;;;;;97.13;62.97;;;8.30;99.90;;;;;;4922462;29;20276;-86
2022/02/03 07:29:34;;;;;;;90.32;47.70;;;8.30;99.90;;;;;;4922858;29;20153;-86
2022/02/03 07:42:29;;;;;;;92.70;50.58;;;8.30;99.90;;;;;;4845487;29;20300;-85
2022/02/03 07:53:43;;;;;;;90.03;47.67;;;8.30;99.90;;;;;;4952973;23;20238;-86
2022/02/03 07:56:08;;;;;;;92.50;45.80;;;8.40;99.90;;;;;;4890369;29;20189;-86
2022/02/03 07:58:34;;;;;;;96.23;57.13;;;8.40;99.90;;;;;;4890621;29;20204;-86
2022/02/03 08:01:00;;;;;;;95.07;53.90;;;8.40;99.90;;;;;;4889358;29;20171;-86
2022/02/03 08:03:26;;;;;;;94.55;54.80;;;8.40;99.90;;;;;;4888741;29;20418;-86
2022/02/03 08:05:59;;;;;;;96.50;60.70;;;8.40;99.90;;;;;;4890033;29;20674;-86
2022/02/03 08:08:31;;;;;;;100.25;55.28;;;8.50;99.90;;;;;;4891348;29;20891;-86
2022/02/03 08:11:01;;;;;;;97.72;52.67;;;8.40;99.90;;;;;;4889777;29;20197;-86
2022/02/03 08:13:47;;;;;;;95.55;56.75;;;8.40;99.90;;;;;;4891675;29;20158;-86
2022/02/03 08:16:22;;;;;;;96.03;56.05;;;8.40;99.90;;;;;;4891250;29;20197;-85
2022/02/03 08:18:53;;;;;;;97.95;59.17;;;8.40;99.90;;;;;;4891230;29;20235;-86
2022/02/03 08:21:20;;;;;;;92.90;50.22;;;8.50;99.90;;;;;;4890312;29;20167;-86
2022/02/03 08:31:43;;;;;;;91.72;53.28;;;8.50;99.90;;;;;;4880853;29;20183;-86
2022/02/03 08:34:21;;;;;;;92.43;53.30;;;8.60;99.90;;;;;;4891178;29;20173;-86
2022/02/03 08:36:47;;;;;;;88.53;51.58;;;8.60;99.90;;;;;;4892542;29;20171;-85
2022/02/03 08:39:18;;;;;;;89.28;51.80;;;8.70;99.90;;;;;;4890814;29;20238;-86
2022/02/03 08:41:44;;;;;;;88.03;53.85;;;8.70;99.90;;;;;;4873405;29;20204;-86
2022/02/03 08:44:10;;;;;;;86.43;51.67;;;8.60;99.90;;;;;;4886406;29;20595;-86
2022/02/03 08:46:35;;;;;;;89.30;53.33;;;8.60;99.90;;;;;;4888101;29;20439;-86
2022/02/03 08:49:05;;;;;;;90.90;53.87;;;8.60;99.90;;;;;;4890409;29;20190;-86
2022/02/03 08:51:31;;;;;;;87.65;53.35;;;8.70;99.90;;;;;;4890425;29;20201;-86
2022/02/03 08:54:05;;;;;;;87.38;51.78;;;8.70;99.90;;;;;;4889575;29;20190;-86
2022/02/03 09:35:10;;;;;;;81.47;33.95;;;9.20;99.90;;;;;;4868554;29;20195;-86
2022/02/03 09:59:15;;;;;;;85.10;43.95;;;9.00;99.90;;;;;;4888158;29;20542;-86
2022/02/03 10:01:51;;;;;;;87.97;49.15;;;9.10;99.90;;;;;;4887596;29;20171;-85
2022/02/03 10:07:18;;;;;;;83.35;41.75;;;9.10;99.90;;;;;;4888394;29;20166;-86
2022/02/03 10:09:44;;;;;;;82.03;36.17;;;9.20;99.90;;;;;;4890043;29;20194;-86
2022/02/03 10:12:12;;;;;;;80.85;34.40;;;9.10;99.90;;;;;;4887195;29;20186;-86
2022/02/03 10:14:40;;;;;;;77.47;30.77;;;9.10;99.90;;;;;;4887349;29;20194;-86
2022/02/03 10:17:07;;;;;;;76.63;28.33;;;9.00;99.90;;;;;;4886890;29;20214;-86
2022/02/03 10:19:41;;;;;;;76.10;25.25;;;9.10;99.90;;;;;;4887891;29;20642;-86
2022/02/03 10:22:17;;;;;;;74.82;22.75;;;9.00;99.90;;;;;;4887363;29;20175;-86
2022/02/03 10:24:47;;;;;;;76.35;26.05;;;9.00;99.90;;;;;;4888164;29;20194;-86
2022/02/03 10:27:43;;;;;;;78.15;29.15;;;9.10;99.90;;;;;;4888444;29;20170;-86
2022/02/03 10:30:16;;;;;;;79.00;35.25;;;9.10;99.90;;;;;;4877894;29;20567;-86
2022/02/03 10:32:45;;;;;;;79.13;34.63;;;9.00;99.90;;;;;;4885836;29;20174;-86
2022/02/03 10:35:30;;;;;;;76.82;31.13;;;9.00;99.90;;;;;;4886166;29;20196;-86
2022/02/03 10:38:08;;;;;;;75.95;28.27;;;9.00;99.90;;;;;;4885828;29;20743;-86
2022/02/03 10:41:07;;;;;;;79.22;33.45;;;9.00;99.90;;;;;;4887549;29;20158;-86
2022/02/03 10:52:51;;;;;;;76.35;27.83;;;9.10;99.90;;;;;;4886190;29;20207;-86
2022/02/03 11:11:22;;;;;;;70.88;11.57;;;9.20;99.90;;;;;;4866634;29;20281;-86
2022/02/03 11:13:50;;;;;;;70.85;12.15;;;9.20;99.90;;;;;;4884097;29;20248;-86
2022/02/03 11:16:18;;;;;;;70.80;12.00;;;9.20;99.90;;;;;;4886415;29;20269;-85
2022/02/03 11:18:46;;;;;;;71.10;12.07;;;9.20;99.90;;;;;;4885892;29;20175;-86
2022/02/03 11:21:13;;;;;;;72.00;12.00;;;9.20;99.90;;;;;;4888526;29;20155;-86
2022/02/03 11:23:46;;;;;;;71.68;12.48;;;9.20;99.90;;;;;;4887323;29;20203;-86
2022/02/03 11:26:38;;;;;;;71.65;13.60;;;9.20;99.90;;;;;;4887842;29;20182;-86
2022/02/03 11:42:33;;;;;;;73.50;12.55;;;9.20;99.90;;;;;;4889075;29;20162;-85
2022/02/03 11:45:31;;;;;;;72.57;13.35;;;9.20;99.90;;;;;;4884463;29;20231;-86
2022/02/03 11:48:45;;;;;;;71.65;14.10;;;9.20;99.90;;;;;;4888218;29;20175;-85
2022/02/03 11:52:00;;;;;;;73.40;14.60;;;9.20;99.90;;;;;;4888475;29;20179;-85
2022/02/03 12:16:44;;;;;;;76.85;24.02;;;8.90;99.90;;;;;;4889666;29;20183;-86
2022/02/03 12:19:36;;;;;;;78.00;30.30;;;8.90;99.90;;;;;;4890444;29;20167;-86
2022/02/03 12:22:57;;;;;;;77.93;32.38;;;8.90;99.90;;;;;;4888664;29;20538;-85
2022/02/03 12:25:40;;;;;;;79.32;31.92;;;8.80;99.90;;;;;;4885102;29;20296;-86
2022/02/03 12:28:25;;;;;;;82.72;43.78;;;8.80;99.90;;;;;;4880649;29;20198;-86
2022/02/03 12:31:23;;;;;;;81.97;41.35;;;8.80;99.90;;;;;;4887709;29;20270;-85
2022/02/03 12:39:15;;;;;;;79.80;34.95;;;8.80;99.90;;;;;;4887151;29;20186;-85
2022/02/03 12:42:00;;;;;;;82.22;42.10;;;8.90;99.90;;;;;;4888347;29;20496;-86
2022/02/03 12:44:31;;;;;;;82.10;38.85;;;8.90;99.90;;;;;;4888833;29;20627;-86
2022/02/03 12:47:06;;;;;;;85.05;50.15;;;8.80;99.90;;;;;;4887393;29;20238;-86
2022/02/03 12:49:50;;;;;;;79.32;30.55;;;8.90;99.90;;;;;;4887753;29;20197;-85
2022/02/03 12:52:33;;;;;;;78.88;32.10;;;8.90;99.90;;;;;;4888871;29;20189;-85
2022/02/03 12:54:59;;;;;;;84.13;41.22;;;8.90;99.90;;;;;;4889854;29;20608;-85
2022/02/03 12:57:34;;;;;;;81.50;40.87;;;8.80;99.90;;;;;;4889307;29;20162;-86
2022/02/03 13:00:28;;;;;;;82.75;41.30;;;8.80;99.90;;;;;;4886839;29;20195;-86
2022/02/03 13:03:02;;;;;;;87.18;56.40;;;8.80;99.90;;;;;;4886052;29;20170;-86
2022/02/03 13:05:32;;;;;;;86.78;54.60;;;8.70;99.90;;;;;;4885276;29;20208;-86
2022/02/03 13:08:00;;;;;;;89.93;61.40;;;8.60;99.90;;;;;;4887911;29;20166;-86
2022/02/03 13:10:30;;;;;;;85.57;52.85;;;8.50;99.90;;;;;;4887673;29;20194;-86
2022/02/03 13:13:25;;;;;;;82.90;44.03;;;8.50;99.90;;;;;;4888937;29;20151;-86
2022/02/03 13:15:51;;;;;;;81.68;38.58;;;8.50;99.90;;;;;;4888351;29;20210;-86
2022/02/03 13:18:28;;;;;;;77.63;28.90;;;8.50;99.90;;;;;;4888874;29;20280;-85
2022/02/03 13:21:06;;;;;;;88.60;42.78;;;8.40;99.90;;;;;;4889062;29;20170;-85
2022/02/03 13:23:40;;;;;;;81.05;36.45;;;8.30;99.90;;;;;;4888025;29;20154;-86
2022/02/03 13:26:10;;;;;;;82.95;37.92;;;8.40;99.90;;;;;;4888265;29;20192;-86
2022/02/03 13:28:48;;;;;;;85.07;46.72;;;8.40;99.90;;;;;;4886325;29;20194;-85
2022/02/03 13:31:30;;;;;;;89.47;60.95;;;8.30;99.90;;;;;;4888078;29;20638;-86
2022/02/03 13:34:04;;;;;;;95.88;77.03;;;8.30;99.90;;;;;;4889763;29;20154;-86
2022/02/03 13:36:32;;;;;;;121.47;109.00;;;8.30;99.90;;;;;;4887518;29;20282;-85
2022/02/03 13:39:14;;;;;;;111.43;99.63;;;8.20;99.90;;;;;;4886778;29;20196;-86
2022/02/03 13:41:43;;;;;;;114.10;102.65;;;8.20;99.90;;;;;;4888273;29;20211;-87
2022/02/03 13:44:30;;;;;;;121.07;109.45;;;8.10;99.90;;;;;;4885533;29;20643;-86
2022/02/03 13:46:56;;;;;;;107.93;96.57;;;8.10;99.90;;;;;;4888887;29;20567;-86
2022/02/03 13:49:25;;;;;;;115.77;103.80;;;8.20;99.90;;;;;;4885132;29;20246;-86
2022/02/03 14:21:23;;;;;;;;;;;;;;;;;;;;;
2022/02/03 14:27:51;;;;;;;77.72;28.60;;;8.40;99.90;;;;;;4791531;30;20200;-86
2022/02/03 14:30:56;;;;;;;79.85;33.88;;;8.30;99.90;;;;;;4814168;29;20298;-85
2022/02/03 14:33:50;;;;;;;77.63;26.17;;;8.30;99.90;;;;;;4866485;29;20194;-86
2022/02/03 14:36:57;;;;;;;;;;;;;;;;;;;;;
2022/02/03 14:40:03;;;;;;;;;;;;;;;;;;;;;
2022/02/03 14:43:04;;;;;;;;;;;;;;;;;;;;;
2022/02/03 14:45:49;;;;;;;80.57;39.50;;;8.20;99.90;;;;;;4842918;29;20362;-85
2022/02/03 14:48:47;;;;;;;85.00;40.85;;;8.20;99.90;;;;;;4831166;29;20191;-86
2022/02/03 14:59:49;;;;;;;84.03;45.42;;;8.10;99.90;;;;;;4866239;29;20637;-86
2022/02/03 15:02:20;;;;;;;84.28;46.72;;;8.10;99.90;;;;;;4865879;29;20175;-87
2022/02/03 15:04:54;;;;;;;81.82;40.00;;;8.10;99.90;;;;;;4866478;29;20560;-86
2022/02/03 15:07:22;;;;;;;85.47;50.78;;;8.10;99.90;;;;;;4867008;29;20148;-86
2022/02/03 15:12:53;;;;;;;75.72;21.52;;;8.00;99.90;;;;;;4866233;29;20151;-86
2022/02/03 15:15:25;;;;;;;74.57;17.50;;;8.10;99.90;;;;;;4866032;29;20183;-86
2022/02/03 15:17:57;;;;;;;77.20;15.30;;;8.10;99.90;;;;;;4865692;29;20186;-86
2022/02/03 15:20:23;;;;;;;73.57;14.40;;;8.00;99.90;;;;;;4865919;29;20171;-86
2022/02/03 15:22:49;;;;;;;73.88;12.90;;;8.00;99.90;;;;;;4864776;29;20183;-86
2022/02/03 15:25:28;;;;;;;74.37;14.90;;;8.10;99.90;;;;;;4863701;29;20202;-86
2022/02/03 15:28:09;;;;;;;72.20;11.32;;;8.00;99.90;;;;;;4865870;29;20718;-86
2022/02/03 15:30:45;;;;;;;75.32;11.80;;;8.10;99.90;;;;;;4864362;29;20195;-86
2022/02/03 15:33:24;;;;;;;75.55;14.38;;;8.10;99.90;;;;;;4864757;29;20182;-86
2022/02/03 15:35:58;;;;;;;74.15;11.93;;;8.10;99.90;;;;;;4865262;29;20249;-86
2022/02/03 15:38:26;;;;;;;73.55;13.98;;;8.10;99.90;;;;;;4865459;29;20158;-86
2022/02/03 15:41:07;;;;;;;78.47;22.20;;;8.10;99.90;;;;;;4865292;29;20174;-86
2022/02/03 15:43:55;;;;;;;82.50;39.60;;;8.10;99.90;;;;;;4864299;29;20209;-87
2022/02/03 15:46:22;;;;;;;83.75;38.95;;;7.90;99.90;;;;;;4865428;29;20270;-86
2022/02/03 15:49:47;;;;;;;83.32;43.20;;;8.00;99.90;;;;;;4865263;29;20616;-86
2022/02/03 15:59:16;;;;;;;75.68;16.40;;;8.00;99.90;;;;;;4865731;29;20292;-86
2022/02/03 16:13:10;;;;;;;72.18;11.60;;;7.90;99.90;;;;;;4866271;29;20148;-86
2022/02/03 16:18:51;;;;;;;79.07;14.73;;;7.90;99.90;;;;;;4869441;29;20194;-87
2022/02/03 16:21:30;;;;;;;80.28;15.60;;;8.00;99.90;;;;;;4869581;29;20168;-86
2022/02/03 16:24:10;;;;;;;81.47;18.17;;;8.00;99.90;;;;;;4867463;29;20171;-85
2022/02/03 16:55:10;;;;;;;77.70;19.50;;;7.80;99.90;;;;;;4869410;29;20279;-87
2022/02/03 16:57:42;;;;;;;81.57;31.25;;;7.80;99.90;;;;;;4870272;29;20206;-87
2022/02/03 17:00:24;;;;;;;77.63;22.80;;;7.80;99.90;;;;;;4868212;29;20199;-87
2022/02/03 17:02:56;;;;;;;76.78;21.40;;;7.80;99.90;;;;;;4866564;29;20175;-87
2022/02/03 17:05:38;;;;;;;75.90;17.55;;;7.80;99.90;;;;;;4866465;29;20282;-86
2022/02/03 17:08:27;;;;;;;78.90;21.20;;;7.90;99.90;;;;;;4867747;29;20178;-86
2022/02/03 17:11:09;;;;;;;78.22;23.20;;;7.70;99.90;;;;;;4867784;29;20183;-86
2022/02/03 17:13:36;;;;;;;81.40;23.52;;;7.70;99.90;;;;;;4867676;29;20213;-86
2022/02/03 17:16:08;;;;;;;79.45;26.15;;;7.80;99.90;;;;;;4866107;29;20227;-86
2022/02/03 17:18:36;;;;;;;78.63;23.27;;;7.70;99.90;;;;;;4866197;29;20172;-86
2022/02/03 17:21:02;;;;;;;81.07;18.20;;;7.80;99.90;;;;;;4866152;29;20171;-86
2022/02/03 17:23:42;;;;;;;80.47;32.80;;;7.80;99.90;;;;;;4866449;29;20264;-86
2022/02/03 17:26:25;;;;;;;79.53;31.10;;;7.80;99.90;;;;;;4867507;29;20190;-86
2022/02/03 17:29:14;;;;;;;81.47;34.53;;;7.80;99.90;;;;;;4866939;29;20182;-87
2022/02/03 18:02:59;;;;;;;85.70;44.65;;;7.60;99.90;;;;;;4866573;29;20717;-86
2022/02/03 18:04:46;;;;;;;84.43;39.38;;;7.70;99.90;;;;;;4866531;29;20186;-86
2022/02/03 18:09:10;;;;;;;80.88;30.00;;;7.70;99.90;;;;;;4866071;29;20167;-87
2022/02/03 18:26:38;;;;;;;91.68;57.28;;;7.60;99.90;;;;;;4865771;29;20202;-87
2022/02/03 18:31:32;;;;;;;94.30;64.88;;;7.70;99.90;;;;;;4866281;29;20708;-86
2022/02/03 18:34:35;;;;;;;92.13;62.53;;;7.60;99.90;;;;;;4866010;29;20219;-86
2022/02/03 18:37:29;;;;;;;89.75;52.90;;;7.60;99.90;;;;;;4864348;29;20227;-86
2022/02/03 18:51:04;;;;;;;90.30;52.58;;;7.70;99.90;;;;;;4864828;29;20327;-86
2022/02/03 19:15:35;;;;;;;86.55;48.53;;;7.60;99.90;;;;;;4864860;29;20862;-86
2022/02/03 19:57:02;;;;;;;81.35;29.83;;;7.70;99.90;;;;;;4869024;29;20691;-87
2022/02/03 20:02:08;;;;;;;90.75;40.55;;;7.60;99.90;;;;;;4868659;29;20152;-86
2022/02/03 20:04:53;;;;;;;83.78;33.42;;;7.70;99.90;;;;;;4868217;29;20751;-87
2022/02/03 20:07:31;;;;;;;87.15;39.70;;;7.60;99.90;;;;;;4867636;29;20167;-87
2022/02/03 20:13:19;;;;;;;86.68;40.72;;;7.60;99.90;;;;;;4847735;29;20172;-87
2022/02/03 20:15:46;;;;;;;92.03;53.08;;;7.60;99.90;;;;;;4867236;29;20239;-87
2022/02/03 20:18:12;;;;;;;94.20;60.00;;;7.60;99.90;;;;;;4867034;29;20195;-87
2022/02/03 20:20:42;;;;;;;90.60;55.67;;;7.60;99.90;;;;;;4866889;29;20178;-86
2022/02/03 20:23:18;;;;;;;92.85;55.95;;;7.60;99.90;;;;;;4867145;29;20400;-86
2022/02/03 20:25:56;;;;;;;95.28;65.50;;;7.50;99.90;;;;;;4866507;29;20214;-86
2022/02/03 20:28:56;;;;;;;103.15;84.10;;;7.50;99.90;;;;;;4868402;29;20182;-86
2022/02/03 20:31:31;;;;;;;106.45;94.55;;;7.50;99.90;;;;;;4859892;29;20187;-86
2022/02/03 20:34:56;;;;;;;102.75;71.45;;;7.50;99.90;;;;;;4866614;29;20239;-86
2022/02/03 20:37:27;;;;;;;94.13;62.45;;;7.50;99.90;;;;;;4858301;29;20179;-86
2022/02/03 20:39:55;;;;;;;91.05;55.28;;;7.60;99.90;;;;;;4866875;29;20589;-86
2022/02/03 20:42:25;;;;;;;85.53;42.80;;;7.60;99.90;;;;;;4867407;29;20182;-86
2022/02/03 20:44:54;;;;;;;90.28;52.30;;;7.60;99.90;;;;;;4868025;29;20195;-86
2022/02/03 20:47:36;;;;;;;85.57;36.38;;;7.60;99.90;;;;;;4867477;29;20228;-86
2022/02/03 20:50:26;;;;;;;94.22;59.38;;;7.60;99.90;;;;;;4866792;29;20211;-86
2022/02/03 20:53:12;;;;;;;101.97;80.88;;;7.60;99.90;;;;;;4867613;29;20662;-86
2022/02/03 20:56:00;;;;;;;104.60;79.18;;;7.50;99.90;;;;;;4865897;29;20200;-86
2022/02/03 20:58:28;;;;;;;100.25;61.50;;;7.60;99.90;;;;;;4867411;29;20636;-86
2022/02/03 21:01:07;;;;;;;88.13;45.22;;;7.60;99.90;;;;;;4866611;29;20182;-86
2022/02/03 21:04:25;;;;;;;;;;;;;;;;;;;;;
2022/02/03 21:07:59;;;;;;;88.38;37.38;;;7.60;99.90;;;;;;4857615;29;20202;-86
2022/02/03 21:09:54;;;;;;;83.97;33.22;;;7.70;99.90;;;;;;4866080;29;20270;-87
2022/02/03 21:12:20;;;;;;;84.20;31.25;;;7.70;99.90;;;;;;4865213;29;20536;-86
2022/02/03 21:14:53;;;;;;;83.77;33.33;;;7.70;99.90;;;;;;4865705;29;20225;-87
2022/02/03 21:17:23;;;;;;;88.30;40.03;;;7.70;99.90;;;;;;4866783;29;20377;-86
2022/02/03 21:20:13;;;;;;;89.05;41.30;;;7.60;99.90;;;;;;4865919;29;20239;-86
2022/02/03 21:22:54;;;;;;;87.47;37.38;;;7.70;99.90;;;;;;4865995;29;20221;-86
2022/02/03 21:25:38;;;;;;;92.30;47.15;;;7.60;99.90;;;;;;4865643;29;20198;-87
2022/02/03 21:28:19;;;;;;;93.60;54.30;;;7.70;99.90;;;;;;4866331;29;20182;-86
2022/02/03 21:31:05;;;;;;;98.30;75.47;;;7.60;99.90;;;;;;4865136;29;20203;-87
2022/02/03 21:33:46;;;;;;;113.32;100.38;;;7.60;99.90;;;;;;4865869;29;20227;-85
2022/02/03 21:36:14;;;;;;;109.47;92.88;;;7.60;99.90;;;;;;4895094;23;20572;-86
2022/02/03 21:38:44;;;;;;;99.93;71.13;;;7.60;99.90;;;;;;4883524;29;20174;-86
2022/02/03 21:41:17;;;;;;;89.25;50.25;;;7.70;99.90;;;;;;4884830;29;20698;-86
2022/02/03 21:43:48;;;;;;;92.72;54.78;;;7.80;99.90;;;;;;4885064;29;20202;-86
2022/02/03 21:46:20;;;;;;;88.93;48.38;;;7.70;99.90;;;;;;4885381;29;20186;-86
2022/02/03 21:48:50;;;;;;;90.78;53.55;;;7.70;99.90;;;;;;4884053;29;20190;-86
2022/02/03 21:51:20;;;;;;;90.35;40.50;;;7.70;99.90;;;;;;4884480;29;20202;-86
2022/02/03 21:53:50;;;;;;;86.70;33.85;;;7.70;99.90;;;;;;4885992;29;20147;-84
2022/02/03 21:56:18;;;;;;;84.95;33.50;;;7.80;99.90;;;;;;4883652;29;20267;-84
2022/02/03 21:58:43;;;;;;;85.50;37.13;;;7.70;99.90;;;;;;4882369;29;20169;-84
2022/02/03 22:01:29;;;;;;;81.97;31.57;;;7.80;99.90;;;;;;4881082;29;20178;-84
2022/02/03 22:03:58;;;;;;;83.22;30.73;;;7.80;99.90;;;;;;4882777;29;20246;-85
2022/02/03 22:07:08;;;;;;;87.32;38.65;;;7.80;99.90;;;;;;4881316;29;20190;-85
2022/02/03 22:09:43;;;;;;;83.78;33.63;;;7.70;99.90;;;;;;4879994;29;20254;-84
2022/02/03 22:12:18;;;;;;;88.28;44.70;;;7.70;99.90;;;;;;4880440;29;20721;-84
2022/02/03 22:14:59;;;;;;;96.28;55.15;;;7.70;99.90;;;;;;4881633;29;20190;-84
2022/02/03 22:17:38;;;;;;;95.45;65.18;;;7.70;99.90;;;;;;4881075;29;20170;-85
2022/02/03 22:20:16;;;;;;;107.35;90.18;;;7.60;99.90;;;;;;4880410;29;20594;-84
2022/02/03 22:45:19;;;;;;;187.18;171.70;;;7.50;99.90;;;;;;4881214;29;20235;-85
2022/02/03 22:48:14;;;;;;;149.88;136.55;;;7.50;99.90;;;;;;4881479;29;20173;-84
2022/02/03 22:50:52;;;;;;;153.98;140.75;;;7.50;99.90;;;;;;4880624;29;20199;-85
2022/02/03 22:53:36;;;;;;;157.55;144.27;;;7.50;99.90;;;;;;4879413;29;20182;-84
2022/02/03 22:56:12;;;;;;;152.20;138.48;;;7.50;99.90;;;;;;4877955;29;20201;-85
2022/02/03 23:01:39;;;;;;;160.95;147.30;;;7.50;99.90;;;;;;4881320;29;20178;-85
2022/02/03 23:04:16;;;;;;;107.50;95.93;;;7.40;99.90;;;;;;4880284;29;20245;-85
2022/02/03 23:07:04;;;;;;;;;;;;;;;;;;;;;
2022/02/03 23:09:47;;;;;;;120.90;108.80;;;7.40;99.90;;;;;;4881205;29;20193;-85
2022/02/03 23:12:58;;;;;;;118.40;106.43;;;7.40;99.90;;;;;;4880092;29;20178;-85
2022/02/03 23:18:03;;;;;;;111.57;99.82;;;7.40;99.90;;;;;;4882428;29;20571;-86
2022/02/03 23:20:50;;;;;;;112.40;93.32;;;7.40;99.90;;;;;;4883057;29;20151;-85
2022/02/03 23:23:16;;;;;;;123.97;111.97;;;7.40;99.90;;;;;;4881419;29;20178;-86
2022/02/03 23:25:45;;;;;;;116.70;104.60;;;7.50;99.90;;;;;;4882202;29;20252;-86
2022/02/03 23:28:27;;;;;;;124.13;111.90;;;7.50;99.90;;;;;;4884164;29;20667;-87
2022/02/03 23:31:18;;;;;;;134.23;121.70;;;7.50;99.90;;;;;;4883573;29;20182;-87
2022/02/03 23:33:47;;;;;;;126.00;113.85;;;7.50;99.90;;;;;;4882964;29;20185;-86
2022/02/03 23:36:19;;;;;;;123.07;110.88;;;7.50;99.90;;;;;;4883602;29;20217;-86
2022/02/03 23:38:56;;;;;;;109.60;97.97;;;7.50;99.90;;;;;;4882330;29;20178;-86
2022/02/03 23:44:25;;;;;;;122.80;110.18;;;7.40;99.90;;;;;;4884479;29;20170;-86
2022/02/03 23:47:12;;;;;;;110.13;97.57;;;7.40;99.90;;;;;;4884211;29;20639;-86
